• Join FlightAware (Why Join?)
  • Login
  • US Flag 
Rudolph Flight #1: Scheduled 
09:05PM EST


 

Airport Tracker/Info


-or-


 

Live Flight TrackerFlight Track Log ✈ N81AX ✈ 29-Apr-2013 ✈ KLZU - KPBI

Flight Track Log - Related Links

Times and Time Zones

All times are in EDT time to prevent confusion due to time zone crossing. See the N81AX flight status page for this flight to view local times or setup timezone preferences in your user account.

Time Position Orientation Groundspeed Altitude Reporting Facility
EDT Latitude Longitude Course Direction KTS MPH feet Rate Location/Type
11:20AM 33.9333 -83.9833 151° Southeast 208 239 2,600  Level Atlanta TRACON
11:21AM 33.8833 -83.9500 151° Southeast 262 302 6,400 3,720 Climbing Atlanta TRACON
11:21AM 33.8736 -83.9261 116° Southeast 259 298 7,700 3,120 Climbing Atlanta Center
11:22AM 33.8233 -83.8636 134° Southeast 283 326 10,400 2,760 Climbing Atlanta Center
11:23AM 33.7378 -83.8539 175° South 284 327 13,300 2,700 Climbing Atlanta Center
11:24AM 33.6544 -83.8992 204° Southwest 298 343 15,900 2,700 Climbing Atlanta Center
11:25AM 33.5647 -83.9417 202° Southwest 331 381 18,700 3,420 Climbing Atlanta Center
11:27AM 33.3831 -84.0264 201° Southwest 348 400 26,200 2,940 Climbing Atlanta Center
11:28AM 33.2975 -84.0461 191° South 326 375 27,600 1,800 Climbing Atlanta Center
11:29AM 33.2014 -84.0092 162° South 321 369 29,800 1,440 Climbing Atlanta Center
11:30AM 33.1097 -83.9694 160° South 342 394 30,500 660 Climbing Atlanta Center
11:31AM 33.0011 -83.9397 167° South 372 428 31,200 720 Climbing Atlanta Center
11:32AM 32.8883 -83.9275 175° South 396 456 32,000 1,020 Climbing Atlanta Center
11:33AM 32.7756 -83.9253 179° South 407 468 33,300 1,020 Climbing Atlanta Center
11:34AM 32.6608 -83.9228 179° South 412 474 34,100 900 Climbing Atlanta Center
11:35AM 32.5586 -83.9033 171° South 417 480 35,100 840 Climbing Atlanta Center
11:36AM 32.4417 -83.8642 164° South 422 486 35,800 960 Climbing Atlanta Center
11:37AM 32.3244 -83.8250 164° South 429 494 37,100 1,140 Climbing Atlanta Center
11:38AM 32.2075 -83.7786 161° South 434 499 38,100 840 Climbing Atlanta Center
11:39AM 32.1239 -83.7414 159° South 436 502 38,600 780 Climbing Jacksonville Center
11:40AM 32.0075 -83.6889 159° South 449 517 39,500 780 Climbing Jacksonville Center
11:41AM 31.8931 -83.6364 159° South 449 517 40,200 600 Climbing Jacksonville Center
11:42AM 31.7806 -83.5817 158° South 444 511 40,700 360 Climbing Jacksonville Center
11:43AM 31.6492 -83.5247 160° South 449 517 41,000 180 Climbing Jacksonville Center
11:44AM 31.5325 -83.4750 160° South 449 517 41,100 60 Climbing Jacksonville Center
11:45AM 31.4136 -83.4403 166° South 443 510 41,200 300 Climbing Jacksonville Center
11:46AM 31.2886 -83.4200 172° South 438 504 41,700 300 Climbing Jacksonville Center
11:47AM 31.1675 -83.4000 172° South 444 511 41,900 180 Climbing Jacksonville Center
11:48AM 31.0486 -83.3581 163° South 449 517 42,100 240 Climbing Jacksonville Center
11:49AM 30.9297 -83.2994 157° South 449 517 42,400 240 Climbing Jacksonville Center
11:50AM 30.8361 -83.2556 158° South 455 524 42,600 180 Climbing Jacksonville Center
11:51AM 30.7108 -83.1872 155° Southeast 455 524 42,800 60 Climbing Jacksonville Center
11:52AM 30.5961 -83.1314 157° South 455 524 42,800 60 Level Jacksonville Center
11:53AM 30.4794 -83.0758 158° South 455 524 43,000 60 Climbing Jacksonville Center
11:54AM 30.3603 -83.0225 159° South 455 524 43,000  Level Jacksonville Center
11:55AM 30.2414 -82.9719 160° South 455 524 43,000  Level Jacksonville Center
11:56AM 30.1225 -82.9167 158° South 455 524 43,000  Level Jacksonville Center
11:57AM 29.9889 -82.8589 159° South 455 524 43,000  Level Jacksonville Center
11:58AM 29.8678 -82.8064 159° South 460 529 43,000  Level Jacksonville Center
11:59AM 29.7486 -82.7492 157° South 465 535 43,000  Level Jacksonville Center
12:00PM 29.6317 -82.6919 157° South 465 535 43,000  Level Jacksonville Center
12:01PM 29.5106 -82.6347 158° South 465 535 43,000  Level Jacksonville Center
12:02PM 29.3914 -82.5828 159° South 465 535 43,000  Level Jacksonville Center
12:03PM 29.2722 -82.5283 158° South 465 535 43,000  Level Jacksonville Center
12:04PM 29.1572 -82.4764 158° South 460 529 43,000 -60 Level Jacksonville Center
12:05PM 29.0339 -82.4367 164° South 460 529 42,900  Descending Jacksonville Center
12:06PM 28.9086 -82.4206 174° South 449 517 43,000  Climbing Jacksonville Center
12:07PM 28.7856 -82.4069 174° South 449 517 43,000  Level Jacksonville Center
12:08PM 28.6769 -82.3981 176° South 442 509 43,000  Level Jacksonville Center
12:09PM 28.5517 -82.3867 175° South 442 509 43,000  Level Jacksonville Center
12:10PM 28.3539 -82.3597 173° South 444 511 43,000  Level Miami Center
12:11PM 28.2147 -82.3386 172° South 454 522 43,000 -60 Level Miami Center
12:12PM 28.0906 -82.3161 171° South 459 528 42,900 -600 Descending Miami Center
12:13PM 27.9706 -82.2892 169° South 458 527 41,900 -1,800 Descending Miami Center
12:14PM 27.8511 -82.2506 164° South 452 520 39,300 -2,820 Descending Miami Center
12:15PM 27.7314 -82.2144 165° South 452 520 36,300 -3,180 Descending Miami Center
12:16PM 27.6136 -82.1786 165° South 452 520 33,000 -2,940 Descending Miami Center
12:17PM 27.5108 -82.1433 163° South 447 514 30,400 -2,940 Descending Miami Center
12:18PM 27.3789 -82.0953 162° South 441 507 27,100 -2,580 Descending Miami Center
12:19PM 27.2553 -82.0522 163° South 460 529 25,400 -1,320 Descending Miami Center
12:20PM 27.1336 -82.0072 162° South 466 536 24,600 -660 Descending Miami Center
12:21PM 27.0264 -81.9697 163° South 454 522 24,100 -300 Descending Miami Center
12:22PM 26.8964 -81.9269 164° South 454 522 24,000 -600 Descending Miami Center
12:23PM 26.8078 -81.8392 139° Southeast 421 484 22,900 -1,800 Descending Miami Center
12:24PM 26.7281 -81.7289 129° Southeast 428 493 20,400 -1,920 Descending Miami Center
12:25PM 26.6694 -81.6033 118° Southeast 448 516 19,100 -720 Descending Miami Center
12:26PM 26.7044 -81.4886 71° East 399 459 19,000 -360 Descending Miami Center
12:27PM 26.7547 -81.3533 67° East 411 473 18,400 -1,500 Descending Miami Center
12:28PM 26.7856 -81.2267 75° East 421 484 16,100 -2,280 Descending Miami Center
12:29PM 26.8122 -81.1067 76° East 405 466 13,900 -2,100 Descending Miami Center
12:30PM 26.8211 -81.0114 84° East 365 420 12,000 -1,800 Descending Miami Center
12:31PM 26.8306 -80.9047 84° East 351 404 10,300 -1,080 Descending Miami Center
12:32PM 26.8164 -80.8067 99° East 307 353 9,900 -240 Descending Miami Center
12:33PM 26.7853 -80.7217 112° Southeast 284 327 9,900 -900 Level Miami Center
12:34PM 26.7561 -80.6417 112° Southeast 278 320 8,200 -1,920 Descending Miami Center
12:35PM 26.7097 -80.5797 130° Southeast 278 320 6,100 -1,980 Descending Miami Center
12:36PM 26.6994 -80.4864 97° East 265 305 4,300 -1,860 Descending Miami Center
12:37PM 26.6972 -80.4119 92° East 265 305 2,400 -1,140 Descending Miami Center
12:38PM 26.6928 -80.3328 94° East 265 305 2,100 -240 Descending Miami Center
12:39PM 26.6903 -80.2631 92° East 243 280 2,000  Descending Miami Center
12:40PM 26.6858 -80.1886 94° East 223 257 2,200 180 Climbing Miami Center
12:42PM 26.6832 -80.0956 50° Northeast  Level Estimated
12:49PM 26.6832 -80.0956 50° Northeast  Level Estimated
12:50PM 26.6832 -80.0956 50° Northeast  Level Estimated
12:51PM 26.6832 -80.0956 50° Northeast  Level Estimated